Time;durP1;ratioP1;P1;durP2;ratioP2;P2;SDS_P1;SDS_P2;PMS_P1;PMS_P2;Temp;Humidity;BMP_temperature;BMP_pressure;BME280_temperature;BME280_humidity;BME280_pressure;Samples;Min_cycle;Max_cycle;Signal;HPM_P1;HPM_P2
2024/01/30 00:02:22;;;;;;;31.55;20.33;;;6.90;99.90;;;;;;5070545;28;20109;-57
2024/01/30 00:04:48;;;;;;;27.67;18.45;;;7.00;99.90;;;;;;5070322;28;20036;-56
2024/01/30 00:07:13;;;;;;;29.60;18.63;;;6.80;99.90;;;;;;5070338;28;20044;-57
2024/01/30 00:09:39;;;;;;;27.58;19.35;;;6.90;99.90;;;;;;5070460;28;20037;-55
2024/01/30 00:12:06;;;;;;;29.80;17.90;;;7.00;99.90;;;;;;5070118;28;20040;-56
2024/01/30 00:14:32;;;;;;;31.80;19.52;;;6.70;99.90;;;;;;5070398;28;20044;-56
2024/01/30 00:16:57;;;;;;;30.40;18.80;;;6.70;99.90;;;;;;5069964;28;20048;-55
2024/01/30 00:19:23;;;;;;;31.27;19.63;;;7.00;99.90;;;;;;5070336;28;20389;-56
2024/01/30 00:21:49;;;;;;;31.48;18.63;;;6.80;99.90;;;;;;5069932;28;20041;-57
2024/01/30 00:24:14;;;;;;;33.55;20.20;;;6.70;99.90;;;;;;5070165;28;20037;-55
2024/01/30 00:26:40;;;;;;;32.97;20.13;;;6.60;99.90;;;;;;5069972;28;20047;-56
2024/01/30 00:29:06;;;;;;;29.05;19.42;;;7.00;99.90;;;;;;5069977;28;20134;-54
2024/01/30 00:31:32;;;;;;;35.00;18.90;;;7.00;99.90;;;;;;5070285;28;20040;-57
2024/01/30 00:33:57;;;;;;;30.48;19.23;;;7.00;99.90;;;;;;5071897;28;20442;-56
2024/01/30 00:36:23;;;;;;;31.92;19.15;;;6.80;99.90;;;;;;5073609;28;20032;-56
2024/01/30 00:38:49;;;;;;;29.98;19.85;;;6.90;99.90;;;;;;5073909;28;20119;-56
2024/01/30 00:41:17;;;;;;;29.02;19.20;;;6.50;99.90;;;;;;5072725;28;20036;-58
2024/01/30 00:43:42;;;;;;;28.05;18.65;;;6.70;99.90;;;;;;5073774;28;20040;-56
2024/01/30 00:46:08;;;;;;;31.83;19.42;;;6.60;99.90;;;;;;5074041;28;20503;-57
2024/01/30 00:48:34;;;;;;;32.92;18.40;;;6.90;99.90;;;;;;5073274;28;20040;-55
2024/01/30 00:50:59;;;;;;;30.02;20.35;;;6.80;99.90;;;;;;5073097;28;20041;-54
2024/01/30 00:53:25;;;;;;;32.63;19.60;;;6.90;99.90;;;;;;5073247;28;20033;-54
2024/01/30 00:55:51;;;;;;;30.13;18.85;;;6.60;99.90;;;;;;5073240;28;20119;-58
2024/01/30 00:58:19;;;;;;;31.65;18.33;;;6.60;99.90;;;;;;5073508;28;20120;-55
2024/01/30 01:00:44;;;;;;;31.23;19.00;;;7.00;99.90;;;;;;5073530;28;20078;-56
2024/01/30 01:03:10;;;;;;;29.95;18.85;;;6.90;99.90;;;;;;5073385;28;20091;-54
2024/01/30 01:05:36;;;;;;;31.95;18.98;;;6.80;99.90;;;;;;5072249;28;20085;-56
2024/01/30 01:08:02;;;;;;;31.55;19.92;;;6.60;99.90;;;;;;5073453;28;20048;-56
2024/01/30 01:10:28;;;;;;;31.52;19.13;;;6.50;99.90;;;;;;5072890;28;20353;-56
2024/01/30 01:12:54;;;;;;;33.90;19.48;;;6.70;99.90;;;;;;5073362;28;20047;-56
2024/01/30 01:15:19;;;;;;;31.65;19.65;;;6.90;99.90;;;;;;5073188;28;20033;-55
2024/01/30 01:17:46;;;;;;;32.03;19.00;;;6.80;99.90;;;;;;5071162;28;20037;-57
2024/01/30 01:20:12;;;;;;;27.63;18.73;;;6.40;99.90;;;;;;5072806;28;20396;-54
2024/01/30 01:22:38;;;;;;;31.33;19.00;;;6.70;99.90;;;;;;5071970;28;20051;-56
2024/01/30 01:25:07;;;;;;;31.48;19.38;;;6.80;99.90;;;;;;5072705;28;20488;-56
2024/01/30 01:27:34;;;;;;;29.75;19.52;;;6.60;99.90;;;;;;5072988;28;20063;-53
2024/01/30 01:30:00;;;;;;;33.10;19.27;;;6.80;99.90;;;;;;5073042;28;20051;-57
2024/01/30 01:32:26;;;;;;;32.83;19.60;;;6.50;99.90;;;;;;5072885;28;20039;-55
2024/01/30 01:34:51;;;;;;;30.17;19.83;;;6.70;99.90;;;;;;5072632;28;20479;-56
2024/01/30 01:37:17;;;;;;;31.08;19.17;;;6.70;99.90;;;;;;5073023;28;20458;-56
2024/01/30 01:39:43;;;;;;;30.65;19.25;;;6.40;99.90;;;;;;5072712;28;20464;-58
2024/01/30 01:42:09;;;;;;;32.38;19.23;;;6.70;99.90;;;;;;5072952;28;20044;-56
2024/01/30 01:44:34;;;;;;;37.90;19.77;;;6.60;99.90;;;;;;5072660;28;20044;-56
2024/01/30 01:47:00;;;;;;;31.75;18.33;;;6.40;99.90;;;;;;5071136;28;20117;-54
2024/01/30 01:49:28;;;;;;;33.45;18.75;;;6.60;99.90;;;;;;5072406;28;20072;-57
2024/01/30 01:51:56;;;;;;;30.15;19.08;;;6.60;99.90;;;;;;5072371;28;20036;-55
2024/01/30 01:54:24;;;;;;;26.60;16.98;;;6.40;99.90;;;;;;5070226;28;20067;-58
2024/01/30 01:56:50;;;;;;;32.45;18.27;;;6.70;99.90;;;;;;5071858;28;20049;-55
2024/01/30 01:59:18;;;;;;;27.58;18.65;;;6.30;99.90;;;;;;5072023;28;20491;-55
2024/01/30 02:01:45;;;;;;;28.08;17.13;;;6.80;99.90;;;;;;5070930;28;20074;-56
2024/01/30 02:04:11;;;;;;;24.38;16.92;;;6.40;99.90;;;;;;5072215;28;20130;-57
2024/01/30 02:06:38;;;;;;;29.15;17.67;;;6.50;99.90;;;;;;5072419;28;20040;-57
2024/01/30 02:09:04;;;;;;;28.15;17.08;;;6.80;99.90;;;;;;5072363;28;20268;-55
2024/01/30 02:11:31;;;;;;;27.25;17.13;;;6.70;99.90;;;;;;5072022;28;20123;-56
2024/01/30 02:13:56;;;;;;;28.77;17.98;;;6.90;99.90;;;;;;5072574;28;20040;-57
2024/01/30 02:16:22;;;;;;;30.25;18.02;;;6.20;99.90;;;;;;5071962;28;20497;-55
2024/01/30 02:18:48;;;;;;;31.13;17.83;;;6.20;99.90;;;;;;5071370;28;20462;-54
2024/01/30 02:21:17;;;;;;;25.48;17.60;;;6.60;99.90;;;;;;5071646;28;20047;-57
2024/01/30 02:23:46;;;;;;;29.27;18.73;;;6.70;99.90;;;;;;5071911;28;20055;-55
2024/01/30 02:26:11;;;;;;;27.92;17.52;;;6.60;99.90;;;;;;5070429;28;20033;-56
2024/01/30 02:28:37;;;;;;;30.25;17.55;;;6.50;99.90;;;;;;5071491;28;20079;-57
2024/01/30 02:31:03;;;;;;;26.90;23.92;;;6.00;99.90;;;;;;5072030;28;20170;-56
2024/01/30 02:33:29;;;;;;;27.05;16.77;;;6.70;99.90;;;;;;5071528;28;20063;-56
2024/01/30 02:35:55;;;;;;;30.55;18.25;;;6.00;99.90;;;;;;5071666;28;20040;-56
2024/01/30 02:38:21;;;;;;;30.85;17.88;;;6.10;99.90;;;;;;5071493;28;20040;-55
2024/01/30 02:40:46;;;;;;;32.58;17.15;;;6.10;99.90;;;;;;5071010;28;20040;-56
2024/01/30 02:43:12;;;;;;;29.05;17.30;;;6.00;99.90;;;;;;5070611;28;20492;-55
2024/01/30 02:45:38;;;;;;;24.20;16.70;;;6.40;99.90;;;;;;5070144;28;20507;-56
2024/01/30 02:48:04;;;;;;;28.98;17.25;;;6.50;99.90;;;;;;5071702;28;20044;-55
2024/01/30 02:50:29;;;;;;;27.02;17.02;;;6.40;99.90;;;;;;5070919;28;20123;-55
2024/01/30 02:52:55;;;;;;;29.10;16.73;;;5.90;99.90;;;;;;5071197;28;20101;-56
2024/01/30 02:55:21;;;;;;;27.65;16.55;;;6.40;99.90;;;;;;5068577;28;20055;-55
2024/01/30 02:57:46;;;;;;;26.92;16.30;;;6.30;99.90;;;;;;5070148;28;20492;-56
2024/01/30 03:00:12;;;;;;;26.58;16.92;;;6.00;99.90;;;;;;5070346;28;20028;-57
2024/01/30 03:02:38;;;;;;;28.92;16.75;;;6.00;99.90;;;;;;5070062;28;20049;-55
2024/01/30 03:05:05;;;;;;;25.95;17.50;;;5.90;99.90;;;;;;5071270;28;20032;-55
2024/01/30 03:07:31;;;;;;;28.50;17.50;;;6.40;99.90;;;;;;5071052;28;20507;-57
2024/01/30 03:09:57;;;;;;;31.42;17.17;;;6.00;99.90;;;;;;5070954;28;20036;-57
2024/01/30 03:12:22;;;;;;;28.63;17.70;;;5.80;99.90;;;;;;5070956;28;20476;-57
2024/01/30 03:14:49;;;;;;;27.60;17.13;;;6.40;99.90;;;;;;5070679;28;20041;-57
2024/01/30 03:17:15;;;;;;;27.05;17.00;;;5.80;99.90;;;;;;5071045;28;20373;-56
2024/01/30 03:19:40;;;;;;;26.15;16.90;;;6.40;99.90;;;;;;5071000;28;20040;-57
2024/01/30 03:22:06;;;;;;;28.38;16.65;;;6.40;99.90;;;;;;5071003;28;20037;-55
2024/01/30 03:24:32;;;;;;;27.65;16.88;;;6.00;99.90;;;;;;5070955;28;20037;-56
2024/01/30 03:26:57;;;;;;;30.25;17.33;;;6.50;99.90;;;;;;5070384;28;20403;-56
2024/01/30 03:29:23;;;;;;;30.85;17.42;;;6.10;99.90;;;;;;5069469;28;20135;-55
2024/01/30 03:31:49;;;;;;;26.17;16.83;;;6.90;99.90;;;;;;5070691;28;20051;-56
2024/01/30 03:34:14;;;;;;;23.63;15.68;;;6.60;99.90;;;;;;5070378;28;20082;-56
2024/01/30 03:36:40;;;;;;;26.48;16.00;;;6.70;99.90;;;;;;5070532;28;20073;-56
2024/01/30 03:39:06;;;;;;;27.35;16.65;;;6.80;99.90;;;;;;5070285;28;20107;-56
2024/01/30 03:41:32;;;;;;;25.35;15.73;;;6.80;99.90;;;;;;5070697;28;20047;-53
2024/01/30 03:43:57;;;;;;;28.73;16.52;;;6.80;99.90;;;;;;5070746;28;20047;-56
2024/01/30 03:46:24;;;;;;;23.15;15.93;;;6.50;99.90;;;;;;5069986;28;20051;-58
2024/01/30 03:48:49;;;;;;;27.35;15.80;;;6.90;99.90;;;;;;5070134;28;20053;-54
2024/01/30 03:51:15;;;;;;;26.45;16.60;;;6.80;99.90;;;;;;5069798;28;20047;-57
2024/01/30 03:53:42;;;;;;;25.88;15.52;;;6.90;99.90;;;;;;5070597;28;20039;-55
2024/01/30 03:56:08;;;;;;;25.05;15.93;;;6.70;99.90;;;;;;5070300;28;20037;-55
2024/01/30 03:58:34;;;;;;;23.40;15.73;;;6.70;99.90;;;;;;5070479;28;20032;-57
2024/01/30 04:01:00;;;;;;;24.85;15.70;;;6.60;99.90;;;;;;5070412;28;20040;-54
2024/01/30 04:03:26;;;;;;;25.60;14.48;;;6.70;99.90;;;;;;5069094;28;20041;-57
2024/01/30 04:05:52;;;;;;;26.08;15.57;;;7.10;99.90;;;;;;5068960;28;20044;-54
2024/01/30 04:08:18;;;;;;;23.67;15.70;;;6.70;99.90;;;;;;5071230;28;20451;-55
2024/01/30 04:10:43;;;;;;;22.58;14.55;;;7.20;99.90;;;;;;5074220;28;20131;-55
2024/01/30 04:13:09;;;;;;;23.45;14.45;;;7.20;99.90;;;;;;5074321;28;21026;-54
2024/01/30 04:15:35;;;;;;;28.95;15.20;;;7.10;99.90;;;;;;5074825;28;20039;-53
2024/01/30 04:18:00;;;;;;;21.15;14.75;;;6.90;99.90;;;;;;5074543;28;20028;-57
2024/01/30 04:20:26;;;;;;;25.58;14.63;;;7.20;99.90;;;;;;5074195;28;20079;-57
2024/01/30 04:22:52;;;;;;;26.08;14.95;;;7.30;99.90;;;;;;5074181;28;20092;-55
2024/01/30 04:25:17;;;;;;;19.92;13.57;;;7.30;99.90;;;;;;5073729;28;20036;-55
2024/01/30 04:27:43;;;;;;;23.83;14.57;;;7.10;99.90;;;;;;5074118;28;20496;-57
2024/01/30 04:30:09;;;;;;;23.52;14.23;;;7.30;99.90;;;;;;5074001;28;20558;-55
2024/01/30 04:32:36;;;;;;;23.15;15.20;;;7.40;99.90;;;;;;5074303;28;20176;-56
2024/01/30 04:35:03;;;;;;;23.00;14.98;;;7.40;99.90;;;;;;5074077;28;20036;-56
2024/01/30 04:37:28;;;;;;;21.20;14.60;;;7.00;99.90;;;;;;5073728;28;20119;-55
2024/01/30 04:39:54;;;;;;;23.83;14.30;;;7.10;99.90;;;;;;5073841;28;20123;-55
2024/01/30 04:42:20;;;;;;;22.65;14.77;;;7.20;99.90;;;;;;5072524;28;20514;-54
2024/01/30 04:44:46;;;;;;;21.83;14.35;;;7.30;99.90;;;;;;5073736;28;20040;-57
2024/01/30 04:47:11;;;;;;;23.33;14.65;;;7.30;99.90;;;;;;5072289;28;20441;-57
2024/01/30 04:49:40;;;;;;;21.05;14.68;;;7.40;99.90;;;;;;5073288;28;20040;-56
2024/01/30 04:52:07;;;;;;;22.33;14.80;;;7.10;99.90;;;;;;5073704;28;20060;-54
2024/01/30 04:54:33;;;;;;;23.88;13.82;;;7.30;99.90;;;;;;5073569;28;20365;-55
2024/01/30 04:56:59;;;;;;;22.55;14.32;;;7.30;99.90;;;;;;5072089;28;20051;-57
2024/01/30 04:59:24;;;;;;;22.63;13.07;;;7.00;99.90;;;;;;5073447;28;20031;-55
2024/01/30 05:01:50;;;;;;;20.85;14.02;;;7.30;99.90;;;;;;5073464;28;20445;-57
2024/01/30 05:04:16;;;;;;;23.25;14.88;;;7.10;99.90;;;;;;5073487;28;20396;-56
2024/01/30 05:06:42;;;;;;;22.40;13.75;;;7.40;99.90;;;;;;5073528;28;20395;-56
2024/01/30 05:09:08;;;;;;;21.08;13.35;;;7.00;99.90;;;;;;5054777;28;20037;-57
2024/01/30 05:11:40;;;;;;;20.90;14.98;;;7.30;99.90;;;;;;5072864;28;20137;-57
2024/01/30 05:14:07;;;;;;;23.63;13.80;;;7.20;99.90;;;;;;5072994;28;20585;-56
2024/01/30 05:16:33;;;;;;;22.17;14.63;;;6.10;99.90;;;;;;5073280;28;20163;-56
2024/01/30 05:18:59;;;;;;;24.13;14.80;;;7.10;99.90;;;;;;5068886;28;20120;-56
2024/01/30 05:21:25;;;;;;;22.77;13.68;;;7.30;99.90;;;;;;5073347;28;20051;-56
2024/01/30 05:23:51;;;;;;;24.52;14.10;;;7.20;99.90;;;;;;5073258;28;20036;-52
2024/01/30 05:26:16;;;;;;;22.40;13.70;;;7.40;99.90;;;;;;5072581;28;20032;-56
2024/01/30 05:28:44;;;;;;;22.13;14.88;;;7.20;99.90;;;;;;5072153;28;20169;-57
2024/01/30 05:31:10;;;;;;;23.05;14.23;;;7.20;99.90;;;;;;5072036;28;20037;-57
2024/01/30 05:33:36;;;;;;;20.77;14.10;;;7.40;99.90;;;;;;5072008;28;20029;-55
2024/01/30 05:36:02;;;;;;;21.48;14.07;;;7.20;99.90;;;;;;5071339;28;20498;-57
2024/01/30 05:38:31;;;;;;;22.50;14.23;;;7.10;99.90;;;;;;5071819;28;20068;-57
2024/01/30 05:40:58;;;;;;;22.35;14.23;;;7.30;99.90;;;;;;5071408;28;20051;-56
2024/01/30 05:43:24;;;;;;;22.27;14.35;;;7.30;99.90;;;;;;5071874;28;20036;-56
2024/01/30 05:45:50;;;;;;;25.02;14.38;;;7.10;99.90;;;;;;5071607;28;20094;-57
2024/01/30 05:48:16;;;;;;;20.73;13.43;;;7.30;99.90;;;;;;5071566;28;20060;-55
2024/01/30 05:50:41;;;;;;;22.63;13.85;;;7.00;99.90;;;;;;5071569;28;20033;-56
2024/01/30 05:53:07;;;;;;;22.50;14.00;;;7.10;99.90;;;;;;5071740;28;20119;-55
2024/01/30 05:55:33;;;;;;;19.40;13.30;;;7.20;99.90;;;;;;5069992;28;20094;-57
2024/01/30 05:57:59;;;;;;;21.02;14.07;;;7.20;99.90;;;;;;5071540;28;20028;-56
2024/01/30 06:00:24;;;;;;;25.77;15.25;;;7.00;99.90;;;;;;5071304;28;20036;-55
2024/01/30 06:02:50;;;;;;;23.80;15.18;;;6.90;99.90;;;;;;5071379;28;20032;-54
2024/01/30 06:05:16;;;;;;;21.08;13.50;;;7.00;99.90;;;;;;5070967;28;20062;-55
2024/01/30 06:07:41;;;;;;;20.70;14.27;;;7.10;99.90;;;;;;5071447;28;20037;-58
2024/01/30 06:10:08;;;;;;;20.73;13.90;;;7.20;99.90;;;;;;5071238;28;20039;-55
2024/01/30 06:12:34;;;;;;;23.67;14.38;;;7.20;99.90;;;;;;5070995;28;20049;-57
2024/01/30 06:15:00;;;;;;;21.17;13.82;;;7.30;99.90;;;;;;5070136;28;20098;-55
2024/01/30 06:17:26;;;;;;;22.15;13.75;;;7.10;99.90;;;;;;5069456;28;20058;-55
2024/01/30 06:19:52;;;;;;;23.38;13.85;;;7.30;99.90;;;;;;5071240;28;20463;-57
2024/01/30 06:22:17;;;;;;;18.75;13.38;;;7.00;99.90;;;;;;5069270;28;20044;-56
2024/01/30 06:24:44;;;;;;;20.80;13.85;;;7.30;99.90;;;;;;5069561;28;20392;-57
2024/01/30 06:27:11;;;;;;;23.65;14.02;;;7.30;99.90;;;;;;5032032;28;1095189;-54
2024/01/30 06:29:36;;;;;;;23.10;14.38;;;7.30;99.90;;;;;;5071963;28;20084;-56
2024/01/30 06:32:02;;;;;;;20.42;14.02;;;7.30;99.90;;;;;;5071008;28;20134;-54
2024/01/30 06:34:28;;;;;;;25.20;14.68;;;7.10;99.90;;;;;;5071807;28;20072;-57
2024/01/30 06:36:53;;;;;;;21.08;13.82;;;7.40;99.90;;;;;;5071549;28;20036;-55
2024/01/30 06:39:19;;;;;;;22.00;14.00;;;7.40;99.90;;;;;;5071325;28;20040;-54
2024/01/30 06:41:46;;;;;;;20.25;13.13;;;7.10;99.90;;;;;;5071721;28;20040;-54
2024/01/30 06:44:12;;;;;;;21.35;13.35;;;7.40;99.90;;;;;;5071641;28;20044;-54
2024/01/30 06:46:38;;;;;;;21.75;13.13;;;7.50;99.90;;;;;;5071298;28;20039;-57
2024/01/30 06:49:04;;;;;;;20.42;13.35;;;7.50;99.90;;;;;;5071415;28;20091;-58
2024/01/30 06:51:30;;;;;;;20.15;13.02;;;7.20;99.90;;;;;;5069894;28;20056;-53
2024/01/30 06:53:55;;;;;;;20.80;13.60;;;7.20;99.90;;;;;;5071302;28;20024;-55
2024/01/30 06:56:21;;;;;;;19.88;14.02;;;7.20;99.90;;;;;;5071251;28;20052;-53
2024/01/30 06:58:50;;;;;;;23.77;13.77;;;7.60;99.90;;;;;;5071268;28;20063;-56
2024/01/30 07:01:16;;;;;;;21.17;14.27;;;7.40;99.90;;;;;;5071105;28;20044;-58
2024/01/30 07:03:42;;;;;;;20.30;13.30;;;7.40;99.90;;;;;;5070905;28;20422;-56
2024/01/30 07:06:10;;;;;;;23.73;13.48;;;7.40;99.90;;;;;;5070526;28;20044;-58
2024/01/30 07:08:39;;;;;;;22.02;14.23;;;7.40;99.90;;;;;;5069967;28;20078;-56
2024/01/30 07:11:06;;;;;;;20.92;13.93;;;7.30;99.90;;;;;;5070442;28;20068;-57
2024/01/30 07:13:32;;;;;;;19.95;13.60;;;7.40;99.90;;;;;;5070436;28;20403;-57
2024/01/30 07:15:58;;;;;;;20.35;13.40;;;7.40;99.90;;;;;;5070824;28;20032;-55
2024/01/30 07:18:24;;;;;;;20.45;13.27;;;7.30;99.90;;;;;;5070938;28;20086;-57
2024/01/30 07:20:49;;;;;;;23.10;13.73;;;7.30;99.90;;;;;;5070594;28;20044;-54
2024/01/30 07:23:17;;;;;;;23.42;14.18;;;7.30;99.90;;;;;;5070806;28;20120;-57
2024/01/30 07:25:48;;;;;;;22.05;13.77;;;7.40;99.90;;;;;;5070523;28;20046;-54
2024/01/30 07:28:16;;;;;;;19.35;12.57;;;7.30;99.90;;;;;;5069354;28;20117;-55
2024/01/30 07:30:42;;;;;;;20.27;12.75;;;7.40;99.90;;;;;;5070691;28;20384;-56
2024/01/30 07:33:09;;;;;;;20.35;13.38;;;7.30;99.90;;;;;;5070189;28;20051;-56
2024/01/30 07:35:35;;;;;;;20.55;12.85;;;7.60;99.90;;;;;;5070249;28;20063;-57
2024/01/30 07:38:01;;;;;;;20.75;13.57;;;7.60;99.90;;;;;;5070253;28;20044;-58
2024/01/30 07:40:26;;;;;;;21.98;13.32;;;7.80;99.90;;;;;;5070901;28;20036;-56
2024/01/30 07:42:54;;;;;;;19.63;13.25;;;7.70;99.90;;;;;;5070456;28;20173;-56
2024/01/30 07:45:24;;;;;;;22.00;12.88;;;7.70;99.90;;;;;;5070354;28;20036;-59
2024/01/30 07:47:50;;;;;;;25.73;12.10;;;7.70;99.90;;;;;;5071067;28;20052;-57
2024/01/30 07:50:16;;;;;;;18.83;12.63;;;7.90;99.90;;;;;;5070408;28;20044;-58
2024/01/30 07:52:43;;;;;;;19.85;12.85;;;7.50;99.90;;;;;;5070746;28;20483;-58
2024/01/30 07:55:09;;;;;;;21.08;12.85;;;7.80;99.90;;;;;;5068970;28;20044;-56
2024/01/30 07:57:34;;;;;;;21.80;12.93;;;7.70;99.90;;;;;;5069396;28;20400;-57
2024/01/30 08:00:01;;;;;;;16.88;12.57;;;7.80;99.90;;;;;;5069954;28;20036;-53
2024/01/30 08:02:27;;;;;;;21.33;13.13;;;7.60;99.90;;;;;;5070710;28;20043;-53
2024/01/30 08:04:52;;;;;;;17.27;12.43;;;7.60;99.90;;;;;;5070246;28;20403;-57
2024/01/30 08:07:18;;;;;;;22.25;13.07;;;7.70;99.90;;;;;;5070635;28;20032;-54
2024/01/30 08:09:44;;;;;;;19.60;13.02;;;7.80;99.90;;;;;;5070493;28;20369;-55
2024/01/30 08:12:10;;;;;;;19.17;12.65;;;7.60;99.90;;;;;;5070311;28;20431;-54
2024/01/30 08:14:35;;;;;;;18.50;13.15;;;7.80;99.90;;;;;;5070538;28;20036;-55
2024/01/30 08:17:01;;;;;;;21.10;13.00;;;7.60;99.90;;;;;;5069661;28;20078;-57
2024/01/30 08:19:26;;;;;;;20.95;13.23;;;7.90;99.90;;;;;;5069939;28;20043;-57
2024/01/30 08:21:52;;;;;;;20.08;13.15;;;7.80;99.90;;;;;;5070301;28;20452;-55
2024/01/30 08:24:18;;;;;;;17.85;12.40;;;7.90;99.90;;;;;;5064544;28;20047;-53
2024/01/30 08:26:43;;;;;;;21.10;13.73;;;7.70;99.90;;;;;;5069844;28;20150;-56
2024/01/30 08:29:09;;;;;;;21.58;13.85;;;7.80;99.90;;;;;;5069889;28;20064;-56
2024/01/30 08:31:35;;;;;;;20.67;13.98;;;7.70;99.90;;;;;;5070156;28;20430;-55
2024/01/30 08:34:00;;;;;;;26.13;13.60;;;7.90;99.90;;;;;;5060292;28;20043;-56
2024/01/30 08:36:26;;;;;;;20.10;12.98;;;7.70;99.90;;;;;;5062250;28;20040;-56
2024/01/30 08:38:52;;;;;;;18.88;12.95;;;7.70;99.90;;;;;;5063206;28;20041;-57
2024/01/30 08:41:18;;;;;;;20.45;13.63;;;7.60;99.90;;;;;;5063277;28;20393;-56
2024/01/30 08:43:44;;;;;;;21.65;14.13;;;7.70;99.90;;;;;;5061640;28;20391;-56
2024/01/30 08:46:10;;;;;;;18.98;13.25;;;8.00;99.90;;;;;;5065167;28;20048;-56
2024/01/30 08:48:36;;;;;;;20.13;13.55;;;7.70;99.90;;;;;;5068324;28;20373;-56
2024/01/30 08:51:02;;;;;;;20.13;13.10;;;8.00;99.90;;;;;;5067821;28;20093;-56
2024/01/30 08:53:27;;;;;;;19.75;13.23;;;7.90;99.90;;;;;;5067698;28;20542;-56
2024/01/30 08:55:53;;;;;;;23.48;13.73;;;8.20;99.90;;;;;;5071947;28;20077;-55
2024/01/30 08:58:19;;;;;;;23.45;13.80;;;8.20;99.90;;;;;;5072635;28;20037;-56
2024/01/30 09:00:45;;;;;;;21.08;13.13;;;8.00;99.90;;;;;;5073283;28;20039;-56
2024/01/30 09:03:10;;;;;;;23.13;13.98;;;8.00;99.90;;;;;;5073305;28;20149;-55
2024/01/30 09:05:36;;;;;;;20.90;13.73;;;8.10;99.90;;;;;;5072879;28;20040;-56
2024/01/30 09:08:02;;;;;;;21.25;14.15;;;8.20;99.90;;;;;;5071431;28;20547;-55
2024/01/30 09:10:27;;;;;;;21.25;14.45;;;8.40;99.90;;;;;;5072898;28;20040;-56
2024/01/30 09:12:53;;;;;;;22.55;14.00;;;8.50;99.90;;;;;;5071433;28;20036;-56
2024/01/30 09:15:19;;;;;;;21.38;13.13;;;8.30;99.90;;;;;;5071737;28;20047;-56
2024/01/30 09:17:44;;;;;;;21.40;13.70;;;8.60;99.90;;;;;;5072595;28;20038;-55
2024/01/30 09:20:11;;;;;;;19.73;12.60;;;8.30;99.90;;;;;;5072390;28;20044;-57
2024/01/30 09:22:36;;;;;;;23.48;13.73;;;8.50;99.90;;;;;;5072704;28;20032;-56
2024/01/30 09:25:02;;;;;;;21.90;14.18;;;8.60;99.90;;;;;;5072699;28;20039;-55
2024/01/30 09:27:28;;;;;;;18.67;13.60;;;8.50;99.90;;;;;;5072301;28;20044;-56
2024/01/30 09:29:54;;;;;;;20.33;13.25;;;8.70;99.90;;;;;;5072315;28;20442;-56
2024/01/30 09:32:19;;;;;;;22.95;13.82;;;8.80;99.90;;;;;;5072438;28;20052;-56
2024/01/30 09:34:45;;;;;;;19.70;14.02;;;8.60;99.90;;;;;;5072319;28;20040;-55
2024/01/30 09:37:11;;;;;;;21.05;13.52;;;8.70;99.90;;;;;;5072600;28;20472;-56
2024/01/30 09:39:36;;;;;;;22.65;14.07;;;8.60;99.90;;;;;;5072310;28;20032;-57
2024/01/30 09:42:26;;;;;;;27.33;14.18;;;8.90;99.90;;;;;;5072194;28;20060;-56
2024/01/30 09:44:53;;;;;;;22.70;14.10;;;8.70;99.90;;;;;;5070553;28;20048;-55
2024/01/30 09:47:19;;;;;;;24.45;14.55;;;8.80;99.90;;;;;;5072370;28;20044;-56
2024/01/30 09:49:44;;;;;;;26.60;16.55;;;8.80;99.90;;;;;;5072514;28;20623;-55
2024/01/30 09:52:11;;;;;;;24.15;15.07;;;9.20;99.90;;;;;;5073184;28;20044;-54
2024/01/30 09:54:38;;;;;;;22.60;14.85;;;9.30;99.90;;;;;;5070808;28;20066;-55
2024/01/30 09:57:04;;;;;;;24.45;13.82;;;9.20;99.90;;;;;;5071799;28;20072;-56
2024/01/30 09:59:30;;;;;;;23.13;13.35;;;9.60;99.90;;;;;;5070286;28;20498;-55
2024/01/30 10:01:57;;;;;;;23.02;14.52;;;9.80;99.90;;;;;;5072062;28;20048;-56
2024/01/30 10:04:23;;;;;;;22.85;14.32;;;9.90;99.90;;;;;;5071579;28;20477;-55
2024/01/30 10:06:49;;;;;;;20.98;13.32;;;9.90;99.90;;;;;;5070691;28;20041;-57
2024/01/30 10:09:15;;;;;;;22.88;14.13;;;10.10;99.90;;;;;;5072453;28;20389;-56
2024/01/30 10:11:40;;;;;;;25.55;14.20;;;10.00;99.90;;;;;;5070838;28;20044;-57
2024/01/30 10:14:06;;;;;;;26.50;13.57;;;9.90;99.90;;;;;;5071425;28;20059;-57
2024/01/30 10:16:31;;;;;;;19.80;14.05;;;10.10;99.90;;;;;;5071592;28;20037;-56
2024/01/30 10:18:57;;;;;;;24.40;13.68;;;10.20;99.90;;;;;;5071721;28;20144;-57
2024/01/30 10:21:23;;;;;;;21.65;13.23;;;10.40;99.90;;;;;;5071440;28;20036;-56
2024/01/30 10:23:50;;;;;;;25.95;14.25;;;10.20;99.90;;;;;;5071617;28;20102;-58
2024/01/30 10:26:17;;;;;;;24.60;14.10;;;10.40;99.90;;;;;;5071280;28;20035;-56
2024/01/30 10:28:43;;;;;;;23.63;13.68;;;10.30;99.90;;;;;;5069896;28;20057;-56
2024/01/30 10:31:09;;;;;;;22.80;14.30;;;10.40;99.90;;;;;;5071681;28;20047;-56
2024/01/30 10:33:34;;;;;;;23.70;14.10;;;10.20;99.90;;;;;;5070035;28;20056;-56
2024/01/30 10:36:02;;;;;;;22.48;12.82;;;10.20;99.90;;;;;;5071362;28;20040;-56
2024/01/30 10:38:32;;;;;;;23.08;14.48;;;10.40;99.90;;;;;;5069790;28;20040;-57
2024/01/30 10:40:59;;;;;;;22.88;13.95;;;10.40;99.90;;;;;;5071234;28;20515;-55
2024/01/30 10:43:35;;;;;;;23.75;13.65;;;10.40;99.90;;;;;;5069887;28;20492;-57
2024/01/30 10:46:17;;;;;;;25.23;13.00;;;10.40;99.90;;;;;;5071107;28;20348;-55
2024/01/30 10:48:46;;;;;;;20.98;12.98;;;10.50;99.90;;;;;;5070048;28;20047;-56
2024/01/30 10:51:14;;;;;;;23.15;12.77;;;10.60;99.90;;;;;;5071110;28;20045;-57
2024/01/30 10:53:41;;;;;;;24.55;13.80;;;10.70;99.90;;;;;;5070550;28;20041;-57
2024/01/30 10:56:08;;;;;;;22.20;13.13;;;10.50;99.90;;;;;;5070603;28;20042;-55
2024/01/30 10:58:33;;;;;;;25.45;13.85;;;10.40;99.90;;;;;;5071063;28;20075;-57
2024/01/30 11:01:00;;;;;;;22.75;13.88;;;10.40;99.90;;;;;;5071206;28;20080;-55
2024/01/30 11:03:26;;;;;;;24.60;13.55;;;10.60;99.90;;;;;;5069962;28;20438;-57
2024/01/30 11:05:52;;;;;;;25.13;14.00;;;10.60;99.90;;;;;;5071305;28;20043;-57
2024/01/30 11:08:25;;;;;;;22.98;14.50;;;10.40;99.90;;;;;;5070825;28;20044;-55
2024/01/30 11:10:55;;;;;;;23.40;13.35;;;10.60;99.90;;;;;;5071371;28;20044;-56
2024/01/30 11:13:21;;;;;;;24.85;14.70;;;10.60;99.90;;;;;;5070956;28;20430;-54
2024/01/30 11:15:50;;;;;;;22.33;13.38;;;10.40;99.90;;;;;;5070624;28;20036;-56
2024/01/30 11:18:26;;;;;;;20.77;13.38;;;10.50;99.90;;;;;;5069986;28;20032;-57
2024/01/30 11:20:52;;;;;;;26.95;13.60;;;10.50;99.90;;;;;;5069787;28;20085;-56
2024/01/30 11:23:17;;;;;;;21.95;12.90;;;10.60;99.90;;;;;;5070430;28;20115;-57
2024/01/30 11:25:47;;;;;;;23.70;13.95;;;10.50;99.90;;;;;;5070026;28;20155;-57
2024/01/30 11:28:15;;;;;;;23.45;13.73;;;10.60;99.90;;;;;;5070845;28;20095;-54
2024/01/30 11:30:41;;;;;;;22.67;12.90;;;10.70;99.90;;;;;;5070835;28;20430;-56
2024/01/30 11:33:09;;;;;;;16.42;11.77;;;10.80;99.90;;;;;;5070274;28;20040;-56
2024/01/30 11:35:36;;;;;;;19.38;11.07;;;10.90;99.90;;;;;;5070312;28;20450;-55
2024/01/30 11:38:03;;;;;;;15.98;10.60;;;10.90;99.90;;;;;;5061767;28;20044;-57
2024/01/30 11:40:30;;;;;;;18.73;9.05;;;11.00;99.90;;;;;;5062731;28;20075;-55
2024/01/30 11:42:57;;;;;;;13.70;8.68;;;11.10;99.90;;;;;;5061691;28;20257;-56
2024/01/30 11:45:23;;;;;;;17.17;9.38;;;11.10;99.90;;;;;;5062665;28;20040;-57
2024/01/30 11:47:49;;;;;;;12.40;8.23;;;11.10;99.90;;;;;;5063628;28;20032;-55
2024/01/30 11:50:15;;;;;;;13.70;8.75;;;11.20;99.90;;;;;;5063248;28;20028;-57
2024/01/30 11:52:41;;;;;;;18.70;10.98;;;11.10;99.90;;;;;;5063518;28;20492;-53
2024/01/30 11:55:08;;;;;;;18.88;11.75;;;11.20;99.90;;;;;;5059705;28;20041;-57
2024/01/30 11:57:35;;;;;;;17.85;10.60;;;11.20;99.90;;;;;;5061040;28;20047;-56
2024/01/30 12:00:04;;;;;;;17.90;10.23;;;11.00;99.90;;;;;;5062941;28;20036;-56
2024/01/30 12:02:30;;;;;;;19.35;8.73;;;10.90;99.90;;;;;;5063150;28;20047;-56
2024/01/30 12:04:55;;;;;;;19.05;8.48;;;10.70;99.90;;;;;;5058049;28;20036;-57
2024/01/30 12:07:21;;;;;;;14.38;7.82;;;10.70;99.90;;;;;;5059356;28;20102;-57
2024/01/30 12:09:54;;;;;;;15.63;7.15;;;10.50;99.90;;;;;;5060776;28;20395;-55
2024/01/30 12:12:23;;;;;;;11.57;5.55;;;10.50;99.90;;;;;;5058932;28;20078;-57
2024/01/30 12:14:49;;;;;;;10.85;5.40;;;10.60;99.90;;;;;;5057370;28;20075;-56
2024/01/30 12:17:30;;;;;;;11.98;5.38;;;10.50;99.90;;;;;;5056856;28;20040;-56
2024/01/30 12:20:17;;;;;;;13.80;6.53;;;10.50;99.90;;;;;;5059840;28;20480;-56
2024/01/30 12:22:45;;;;;;;17.63;8.27;;;10.40;99.90;;;;;;5055180;28;20049;-55
2024/01/30 12:25:20;;;;;;;16.95;8.80;;;10.30;99.90;;;;;;5056183;28;20044;-56
2024/01/30 12:27:51;;;;;;;19.70;9.57;;;10.30;99.90;;;;;;5057075;28;20131;-56
2024/01/30 12:30:19;;;;;;;22.17;11.05;;;10.30;99.90;;;;;;5061422;28;20037;-56
2024/01/30 12:32:46;;;;;;;18.20;9.60;;;10.30;99.90;;;;;;5059078;28;20048;-57